sensor_id;sensor_type;location;lat;lon;timestamp;temperature;humidity
37342;DHT22;58643;49.052;8.518;2023-04-12T00:02:03;10.60;99.90
37342;DHT22;58643;49.052;8.518;2023-04-12T00:04:29;10.60;99.90
37342;DHT22;58643;49.052;8.518;2023-04-12T00:06:55;11.80;99.90
37342;DHT22;58643;49.052;8.518;2023-04-12T00:09:20;10.50;99.90
37342;DHT22;58643;49.052;8.518;2023-04-12T00:11:46;13.20;99.90
37342;DHT22;58643;49.052;8.518;2023-04-12T00:14:12;10.30;99.90
37342;DHT22;58643;49.052;8.518;2023-04-12T00:16:37;10.20;99.90
37342;DHT22;58643;49.052;8.518;2023-04-12T00:19:04;10.20;99.90
37342;DHT22;58643;49.052;8.518;2023-04-12T00:21:31;10.00;99.90
37342;DHT22;58643;49.052;8.518;2023-04-12T00:23:56;10.00;99.90
37342;DHT22;58643;49.052;8.518;2023-04-12T00:26:22;11.80;99.90
37342;DHT22;58643;49.052;8.518;2023-04-12T00:28:50;9.80;99.90
37342;DHT22;58643;49.052;8.518;2023-04-12T00:31:15;9.50;99.90
37342;DHT22;58643;49.052;8.518;2023-04-12T00:33:41;9.50;99.90
37342;DHT22;58643;49.052;8.518;2023-04-12T00:36:07;11.10;99.90
37342;DHT22;58643;49.052;8.518;2023-04-12T00:38:32;9.20;99.90
37342;DHT22;58643;49.052;8.518;2023-04-12T00:40:59;9.10;99.90
37342;DHT22;58643;49.052;8.518;2023-04-12T00:43:25;9.10;99.90
37342;DHT22;58643;49.052;8.518;2023-04-12T00:45:53;8.90;99.90
37342;DHT22;58643;49.052;8.518;2023-04-12T00:48:22;10.90;99.90
37342;DHT22;58643;49.052;8.518;2023-04-12T00:50:48;9.70;99.90
37342;DHT22;58643;49.052;8.518;2023-04-12T00:53:14;8.70;99.90
37342;DHT22;58643;49.052;8.518;2023-04-12T00:55:44;8.70;99.90
37342;DHT22;58643;49.052;8.518;2023-04-12T00:58:10;8.70;99.90
37342;DHT22;58643;49.052;8.518;2023-04-12T01:00:36;8.60;99.90
37342;DHT22;58643;49.052;8.518;2023-04-12T01:03:03;8.40;99.90
37342;DHT22;58643;49.052;8.518;2023-04-12T01:05:30;8.60;99.90
37342;DHT22;58643;49.052;8.518;2023-04-12T01:15:44;8.40;99.90
37342;DHT22;58643;49.052;8.518;2023-04-12T01:18:20;8.50;99.90
37342;DHT22;58643;49.052;8.518;2023-04-12T01:20:56;8.60;99.90
37342;DHT22;58643;49.052;8.518;2023-04-12T01:28:41;11.50;99.90
37342;DHT22;58643;49.052;8.518;2023-04-12T01:31:08;8.50;99.90
37342;DHT22;58643;49.052;8.518;2023-04-12T01:33:37;10.10;99.90
37342;DHT22;58643;49.052;8.518;2023-04-12T01:36:09;8.60;99.90
37342;DHT22;58643;49.052;8.518;2023-04-12T01:38:38;8.60;99.90
37342;DHT22;58643;49.052;8.518;2023-04-12T01:41:06;8.60;99.90
37342;DHT22;58643;49.052;8.518;2023-04-12T01:43:32;8.50;99.90
37342;DHT22;58643;49.052;8.518;2023-04-12T01:45:58;10.60;99.90
37342;DHT22;58643;49.052;8.518;2023-04-12T01:48:24;8.50;99.90
37342;DHT22;58643;49.052;8.518;2023-04-12T01:51:05;8.50;99.90
37342;DHT22;58643;49.052;8.518;2023-04-12T01:53:44;8.50;99.90
37342;DHT22;58643;49.052;8.518;2023-04-12T01:56:15;8.50;99.90
37342;DHT22;58643;49.052;8.518;2023-04-12T01:58:42;8.60;99.90
37342;DHT22;58643;49.052;8.518;2023-04-12T02:01:10;8.50;99.90
37342;DHT22;58643;49.052;8.518;2023-04-12T02:03:39;9.60;99.90
37342;DHT22;58643;49.052;8.518;2023-04-12T02:06:06;8.60;99.90
37342;DHT22;58643;49.052;8.518;2023-04-12T02:08:33;8.50;99.90
37342;DHT22;58643;49.052;8.518;2023-04-12T02:10:59;8.60;99.90
37342;DHT22;58643;49.052;8.518;2023-04-12T02:13:24;8.60;99.90
37342;DHT22;58643;49.052;8.518;2023-04-12T02:15:51;8.60;99.90
37342;DHT22;58643;49.052;8.518;2023-04-12T02:18:19;8.60;99.90
37342;DHT22;58643;49.052;8.518;2023-04-12T02:20:45;8.60;99.90
37342;DHT22;58643;49.052;8.518;2023-04-12T02:23:11;8.70;99.90
37342;DHT22;58643;49.052;8.518;2023-04-12T02:25:37;11.60;99.90
37342;DHT22;58643;49.052;8.518;2023-04-12T02:28:05;8.60;99.90
37342;DHT22;58643;49.052;8.518;2023-04-12T02:30:31;8.60;99.90
37342;DHT22;58643;49.052;8.518;2023-04-12T02:32:57;8.50;99.90
37342;DHT22;58643;49.052;8.518;2023-04-12T02:35:23;8.60;99.90
37342;DHT22;58643;49.052;8.518;2023-04-12T02:37:49;8.70;99.90
37342;DHT22;58643;49.052;8.518;2023-04-12T02:40:15;8.60;99.90
37342;DHT22;58643;49.052;8.518;2023-04-12T02:42:42;8.60;99.90
37342;DHT22;58643;49.052;8.518;2023-04-12T02:45:09;9.60;99.90
37342;DHT22;58643;49.052;8.518;2023-04-12T02:47:35;8.60;99.90
37342;DHT22;58643;49.052;8.518;2023-04-12T02:50:01;8.50;99.90
37342;DHT22;58643;49.052;8.518;2023-04-12T02:52:27;8.60;99.90
37342;DHT22;58643;49.052;8.518;2023-04-12T02:54:54;8.60;99.90
37342;DHT22;58643;49.052;8.518;2023-04-12T02:57:20;8.60;99.90
37342;DHT22;58643;49.052;8.518;2023-04-12T02:59:46;8.50;99.90
37342;DHT22;58643;49.052;8.518;2023-04-12T03:02:13;8.60;99.90
37342;DHT22;58643;49.052;8.518;2023-04-12T03:04:38;8.60;99.90
37342;DHT22;58643;49.052;8.518;2023-04-12T03:07:05;8.50;99.90
37342;DHT22;58643;49.052;8.518;2023-04-12T03:09:31;10.00;99.90
37342;DHT22;58643;49.052;8.518;2023-04-12T03:11:57;8.50;99.90
37342;DHT22;58643;49.052;8.518;2023-04-12T03:14:22;8.50;99.90
37342;DHT22;58643;49.052;8.518;2023-04-12T03:16:48;8.50;99.90
37342;DHT22;58643;49.052;8.518;2023-04-12T03:19:16;8.50;99.90
37342;DHT22;58643;49.052;8.518;2023-04-12T03:21:41;8.30;99.90
37342;DHT22;58643;49.052;8.518;2023-04-12T03:24:07;9.50;99.90
37342;DHT22;58643;49.052;8.518;2023-04-12T03:26:33;10.10;99.90
37342;DHT22;58643;49.052;8.518;2023-04-12T03:29:00;8.40;99.90
37342;DHT22;58643;49.052;8.518;2023-04-12T03:31:26;8.30;99.90
37342;DHT22;58643;49.052;8.518;2023-04-12T03:33:52;8.20;99.90
37342;DHT22;58643;49.052;8.518;2023-04-12T03:36:18;8.40;99.90
37342;DHT22;58643;49.052;8.518;2023-04-12T03:38:47;8.40;99.90
37342;DHT22;58643;49.052;8.518;2023-04-12T03:41:14;8.30;99.90
37342;DHT22;58643;49.052;8.518;2023-04-12T03:43:40;8.30;99.90
37342;DHT22;58643;49.052;8.518;2023-04-12T03:46:07;8.30;99.90
37342;DHT22;58643;49.052;8.518;2023-04-12T03:48:32;8.20;99.90
37342;DHT22;58643;49.052;8.518;2023-04-12T03:50:58;8.20;99.90
37342;DHT22;58643;49.052;8.518;2023-04-12T03:53:27;8.30;99.90
37342;DHT22;58643;49.052;8.518;2023-04-12T03:55:55;8.30;99.90
37342;DHT22;58643;49.052;8.518;2023-04-12T03:58:20;8.20;99.90
37342;DHT22;58643;49.052;8.518;2023-04-12T04:00:46;8.30;99.90
37342;DHT22;58643;49.052;8.518;2023-04-12T04:03:13;8.40;99.90
37342;DHT22;58643;49.052;8.518;2023-04-12T04:05:39;8.30;99.90
37342;DHT22;58643;49.052;8.518;2023-04-12T04:08:05;8.20;99.90
37342;DHT22;58643;49.052;8.518;2023-04-12T04:10:33;10.20;99.90
37342;DHT22;58643;49.052;8.518;2023-04-12T04:12:58;8.20;99.90
37342;DHT22;58643;49.052;8.518;2023-04-12T04:15:24;8.20;99.90
37342;DHT22;58643;49.052;8.518;2023-04-12T04:17:51;9.40;99.90
37342;DHT22;58643;49.052;8.518;2023-04-12T04:20:17;8.20;99.90
37342;DHT22;58643;49.052;8.518;2023-04-12T04:22:44;8.30;99.90
37342;DHT22;58643;49.052;8.518;2023-04-12T04:25:13;8.50;99.90
37342;DHT22;58643;49.052;8.518;2023-04-12T04:27:40;8.20;99.90
37342;DHT22;58643;49.052;8.518;2023-04-12T04:30:06;8.30;99.90
37342;DHT22;58643;49.052;8.518;2023-04-12T04:32:32;8.30;99.90
37342;DHT22;58643;49.052;8.518;2023-04-12T04:34:59;10.00;99.90
37342;DHT22;58643;49.052;8.518;2023-04-12T04:37:25;8.30;99.90
37342;DHT22;58643;49.052;8.518;2023-04-12T04:39:51;8.30;99.90
37342;DHT22;58643;49.052;8.518;2023-04-12T04:42:17;8.30;99.90
37342;DHT22;58643;49.052;8.518;2023-04-12T04:44:43;8.40;99.90
37342;DHT22;58643;49.052;8.518;2023-04-12T04:47:08;8.30;99.90
37342;DHT22;58643;49.052;8.518;2023-04-12T04:49:37;8.30;99.90
37342;DHT22;58643;49.052;8.518;2023-04-12T04:52:03;8.40;99.90
37342;DHT22;58643;49.052;8.518;2023-04-12T04:54:29;8.30;99.90
37342;DHT22;58643;49.052;8.518;2023-04-12T04:56:56;8.20;99.90
37342;DHT22;58643;49.052;8.518;2023-04-12T04:59:22;8.40;99.90
37342;DHT22;58643;49.052;8.518;2023-04-12T05:01:48;8.40;99.90
37342;DHT22;58643;49.052;8.518;2023-04-12T05:04:14;8.40;99.90
37342;DHT22;58643;49.052;8.518;2023-04-12T05:06:39;8.50;99.90
37342;DHT22;58643;49.052;8.518;2023-04-12T05:09:05;10.40;99.90
37342;DHT22;58643;49.052;8.518;2023-04-12T05:11:30;8.50;99.90
37342;DHT22;58643;49.052;8.518;2023-04-12T05:13:56;8.50;99.90
37342;DHT22;58643;49.052;8.518;2023-04-12T05:16:22;8.70;99.90
37342;DHT22;58643;49.052;8.518;2023-04-12T05:18:48;8.80;99.90
37342;DHT22;58643;49.052;8.518;2023-04-12T05:21:13;10.90;99.90
37342;DHT22;58643;49.052;8.518;2023-04-12T05:23:44;9.10;99.90
37342;DHT22;58643;49.052;8.518;2023-04-12T05:26:10;10.60;99.90
37342;DHT22;58643;49.052;8.518;2023-04-12T05:28:36;8.90;99.90
37342;DHT22;58643;49.052;8.518;2023-04-12T05:31:01;11.50;99.90
37342;DHT22;58643;49.052;8.518;2023-04-12T05:33:27;8.80;99.90
37342;DHT22;58643;49.052;8.518;2023-04-12T05:35:52;8.80;99.90
37342;DHT22;58643;49.052;8.518;2023-04-12T05:38:18;8.80;99.90
37342;DHT22;58643;49.052;8.518;2023-04-12T05:40:44;8.80;99.90
37342;DHT22;58643;49.052;8.518;2023-04-12T05:43:09;8.70;99.90
37342;DHT22;58643;49.052;8.518;2023-04-12T05:45:39;8.80;99.90
37342;DHT22;58643;49.052;8.518;2023-04-12T05:48:05;8.80;99.90
37342;DHT22;58643;49.052;8.518;2023-04-12T05:50:31;8.80;99.90
37342;DHT22;58643;49.052;8.518;2023-04-12T05:52:57;8.90;99.90
37342;DHT22;58643;49.052;8.518;2023-04-12T05:55:22;10.00;99.90
37342;DHT22;58643;49.052;8.518;2023-04-12T05:57:48;8.90;99.90
37342;DHT22;58643;49.052;8.518;2023-04-12T06:00:14;8.90;99.90
37342;DHT22;58643;49.052;8.518;2023-04-12T06:02:46;8.90;99.90
37342;DHT22;58643;49.052;8.518;2023-04-12T06:05:13;8.90;99.90
37342;DHT22;58643;49.052;8.518;2023-04-12T06:07:41;8.90;99.90
37342;DHT22;58643;49.052;8.518;2023-04-12T06:10:11;9.50;99.90
37342;DHT22;58643;49.052;8.518;2023-04-12T06:12:37;8.90;99.90
37342;DHT22;58643;49.052;8.518;2023-04-12T06:15:03;8.90;99.90
37342;DHT22;58643;49.052;8.518;2023-04-12T06:17:29;9.00;99.90
37342;DHT22;58643;49.052;8.518;2023-04-12T06:19:55;9.10;99.90
37342;DHT22;58643;49.052;8.518;2023-04-12T06:22:20;9.10;99.90
37342;DHT22;58643;49.052;8.518;2023-04-12T06:24:46;9.10;99.90
37342;DHT22;58643;49.052;8.518;2023-04-12T06:27:12;9.20;99.90
37342;DHT22;58643;49.052;8.518;2023-04-12T06:29:37;10.10;99.90
37342;DHT22;58643;49.052;8.518;2023-04-12T06:32:03;9.20;99.90
37342;DHT22;58643;49.052;8.518;2023-04-12T06:34:29;9.20;99.90
37342;DHT22;58643;49.052;8.518;2023-04-12T06:36:54;9.20;99.90
37342;DHT22;58643;49.052;8.518;2023-04-12T06:39:21;9.40;99.90
37342;DHT22;58643;49.052;8.518;2023-04-12T06:41:47;9.20;99.90
37342;DHT22;58643;49.052;8.518;2023-04-12T06:44:15;9.20;99.90
37342;DHT22;58643;49.052;8.518;2023-04-12T06:46:40;11.20;99.90
37342;DHT22;58643;49.052;8.518;2023-04-12T06:49:06;9.50;99.90
37342;DHT22;58643;49.052;8.518;2023-04-12T06:51:31;9.50;99.90
37342;DHT22;58643;49.052;8.518;2023-04-12T06:53:58;9.60;99.90
37342;DHT22;58643;49.052;8.518;2023-04-12T06:56:24;9.60;99.90
37342;DHT22;58643;49.052;8.518;2023-04-12T06:58:50;9.90;99.90
37342;DHT22;58643;49.052;8.518;2023-04-12T07:01:15;9.60;99.90
37342;DHT22;58643;49.052;8.518;2023-04-12T07:03:42;10.50;99.90
37342;DHT22;58643;49.052;8.518;2023-04-12T07:06:07;9.80;99.90
37342;DHT22;58643;49.052;8.518;2023-04-12T07:08:34;9.80;99.90
37342;DHT22;58643;49.052;8.518;2023-04-12T07:11:01;10.10;99.90
37342;DHT22;58643;49.052;8.518;2023-04-12T07:13:26;10.00;99.90
37342;DHT22;58643;49.052;8.518;2023-04-12T07:15:52;10.10;99.90
37342;DHT22;58643;49.052;8.518;2023-04-12T07:18:19;10.10;99.90
37342;DHT22;58643;49.052;8.518;2023-04-12T07:20:46;10.20;99.90
37342;DHT22;58643;49.052;8.518;2023-04-12T07:23:13;10.20;99.90
37342;DHT22;58643;49.052;8.518;2023-04-12T07:25:39;12.60;99.90
37342;DHT22;58643;49.052;8.518;2023-04-12T07:28:05;10.10;99.90
37342;DHT22;58643;49.052;8.518;2023-04-12T07:30:31;10.20;99.90
37342;DHT22;58643;49.052;8.518;2023-04-12T07:32:56;10.10;99.90
37342;DHT22;58643;49.052;8.518;2023-04-12T07:35:22;10.00;99.90
37342;DHT22;58643;49.052;8.518;2023-04-12T07:37:48;10.30;99.90
37342;DHT22;58643;49.052;8.518;2023-04-12T07:40:13;10.20;99.90
37342;DHT22;58643;49.052;8.518;2023-04-12T07:42:39;10.20;99.90
37342;DHT22;58643;49.052;8.518;2023-04-12T07:45:05;10.20;99.90
37342;DHT22;58643;49.052;8.518;2023-04-12T07:47:31;10.20;99.90
37342;DHT22;58643;49.052;8.518;2023-04-12T07:49:57;10.30;99.90
37342;DHT22;58643;49.052;8.518;2023-04-12T07:52:23;10.40;99.90
37342;DHT22;58643;49.052;8.518;2023-04-12T07:54:49;10.50;99.90
37342;DHT22;58643;49.052;8.518;2023-04-12T07:57:14;12.10;99.90
37342;DHT22;58643;49.052;8.518;2023-04-12T07:59:42;11.60;99.90
37342;DHT22;58643;49.052;8.518;2023-04-12T08:02:08;10.00;99.90
37342;DHT22;58643;49.052;8.518;2023-04-12T08:04:34;10.60;99.90
37342;DHT22;58643;49.052;8.518;2023-04-12T08:06:59;10.70;99.90
37342;DHT22;58643;49.052;8.518;2023-04-12T08:09:25;12.40;99.90
37342;DHT22;58643;49.052;8.518;2023-04-12T08:11:51;10.90;99.90
37342;DHT22;58643;49.052;8.518;2023-04-12T08:14:16;10.80;99.90
37342;DHT22;58643;49.052;8.518;2023-04-12T08:16:42;11.00;99.90
37342;DHT22;58643;49.052;8.518;2023-04-12T08:19:08;11.30;99.90
37342;DHT22;58643;49.052;8.518;2023-04-12T08:21:33;13.00;99.90
37342;DHT22;58643;49.052;8.518;2023-04-12T08:23:59;11.30;99.90
37342;DHT22;58643;49.052;8.518;2023-04-12T08:26:25;12.10;99.90
37342;DHT22;58643;49.052;8.518;2023-04-12T08:28:54;11.50;99.90
37342;DHT22;58643;49.052;8.518;2023-04-12T08:31:22;11.90;99.90
37342;DHT22;58643;49.052;8.518;2023-04-12T08:33:48;13.90;99.90
37342;DHT22;58643;49.052;8.518;2023-04-12T08:36:13;13.00;99.90
37342;DHT22;58643;49.052;8.518;2023-04-12T08:38:42;13.50;99.90
37342;DHT22;58643;49.052;8.518;2023-04-12T08:41:08;12.70;99.90
37342;DHT22;58643;49.052;8.518;2023-04-12T08:43:34;13.10;99.90
37342;DHT22;58643;49.052;8.518;2023-04-12T08:46:00;13.40;99.90
37342;DHT22;58643;49.052;8.518;2023-04-12T08:48:26;14.20;99.90
37342;DHT22;58643;49.052;8.518;2023-04-12T08:50:55;15.00;99.90
37342;DHT22;58643;49.052;8.518;2023-04-12T08:53:22;14.80;99.90
37342;DHT22;58643;49.052;8.518;2023-04-12T08:55:47;12.70;99.90
37342;DHT22;58643;49.052;8.518;2023-04-12T08:58:13;14.20;99.90
37342;DHT22;58643;49.052;8.518;2023-04-12T09:00:40;12.40;99.90
37342;DHT22;58643;49.052;8.518;2023-04-12T09:03:06;12.20;99.90
37342;DHT22;58643;49.052;8.518;2023-04-12T09:05:31;12.50;99.90
37342;DHT22;58643;49.052;8.518;2023-04-12T09:07:57;14.40;99.90
37342;DHT22;58643;49.052;8.518;2023-04-12T09:10:32;12.40;99.90
37342;DHT22;58643;49.052;8.518;2023-04-12T09:12:59;12.20;99.90
37342;DHT22;58643;49.052;8.518;2023-04-12T09:15:26;11.90;99.90
37342;DHT22;58643;49.052;8.518;2023-04-12T09:18:06;12.20;99.90
37342;DHT22;58643;49.052;8.518;2023-04-12T09:20:32;12.00;99.90
37342;DHT22;58643;49.052;8.518;2023-04-12T09:22:58;12.20;99.90
37342;DHT22;58643;49.052;8.518;2023-04-12T09:25:39;13.30;99.90
37342;DHT22;58643;49.052;8.518;2023-04-12T09:30:45;12.10;99.90
37342;DHT22;58643;49.052;8.518;2023-04-12T09:33:16;12.30;99.90
37342;DHT22;58643;49.052;8.518;2023-04-12T09:35:42;12.30;99.90
37342;DHT22;58643;49.052;8.518;2023-04-12T09:38:11;14.00;99.90
37342;DHT22;58643;49.052;8.518;2023-04-12T09:40:37;10.40;99.90
37342;DHT22;58643;49.052;8.518;2023-04-12T09:43:04;12.40;99.90
37342;DHT22;58643;49.052;8.518;2023-04-12T09:45:33;13.60;99.90
37342;DHT22;58643;49.052;8.518;2023-04-12T09:48:00;12.80;99.90
37342;DHT22;58643;49.052;8.518;2023-04-12T09:50:27;11.80;99.90
37342;DHT22;58643;49.052;8.518;2023-04-12T09:52:54;13.00;99.90
37342;DHT22;58643;49.052;8.518;2023-04-12T09:55:22;12.00;99.90
37342;DHT22;58643;49.052;8.518;2023-04-12T09:57:50;12.60;99.90
37342;DHT22;58643;49.052;8.518;2023-04-12T10:00:17;12.20;99.90
37342;DHT22;58643;49.052;8.518;2023-04-12T10:02:49;12.20;99.90
37342;DHT22;58643;49.052;8.518;2023-04-12T10:05:17;12.10;99.90
37342;DHT22;58643;49.052;8.518;2023-04-12T10:07:45;12.20;99.90
37342;DHT22;58643;49.052;8.518;2023-04-12T10:10:15;14.30;99.90
37342;DHT22;58643;49.052;8.518;2023-04-12T10:12:42;12.50;99.90
37342;DHT22;58643;49.052;8.518;2023-04-12T10:15:10;12.70;99.90
37342;DHT22;58643;49.052;8.518;2023-04-12T10:17:41;12.70;99.90
37342;DHT22;58643;49.052;8.518;2023-04-12T10:20:09;14.20;99.90
37342;DHT22;58643;49.052;8.518;2023-04-12T10:22:38;12.50;99.90
37342;DHT22;58643;49.052;8.518;2023-04-12T10:25:04;12.60;99.90
37342;DHT22;58643;49.052;8.518;2023-04-12T10:27:30;12.70;99.90
37342;DHT22;58643;49.052;8.518;2023-04-12T10:30:26;12.60;99.90
37342;DHT22;58643;49.052;8.518;2023-04-12T10:35:31;13.00;99.90
37342;DHT22;58643;49.052;8.518;2023-04-12T10:38:13;13.10;99.90
37342;DHT22;58643;49.052;8.518;2023-04-12T10:41:17;15.10;99.90
37342;DHT22;58643;49.052;8.518;2023-04-12T10:43:48;13.20;99.90
37342;DHT22;58643;49.052;8.518;2023-04-12T10:49:07;14.40;99.90
37342;DHT22;58643;49.052;8.518;2023-04-12T10:51:33;13.50;99.90
37342;DHT22;58643;49.052;8.518;2023-04-12T10:56:46;13.50;99.90
37342;DHT22;58643;49.052;8.518;2023-04-12T10:59:12;13.70;99.90
37342;DHT22;58643;49.052;8.518;2023-04-12T11:01:39;14.00;99.90
37342;DHT22;58643;49.052;8.518;2023-04-12T11:04:17;15.20;99.90
37342;DHT22;58643;49.052;8.518;2023-04-12T11:09:45;14.80;99.90
37342;DHT22;58643;49.052;8.518;2023-04-12T11:12:13;15.00;99.90
37342;DHT22;58643;49.052;8.518;2023-04-12T11:14:50;16.20;99.90
37342;DHT22;58643;49.052;8.518;2023-04-12T11:19:47;16.00;99.90
37342;DHT22;58643;49.052;8.518;2023-04-12T11:22:15;15.40;99.90
37342;DHT22;58643;49.052;8.518;2023-04-12T11:24:46;14.50;99.90
37342;DHT22;58643;49.052;8.518;2023-04-12T11:27:13;16.50;99.90
37342;DHT22;58643;49.052;8.518;2023-04-12T11:29:38;15.50;99.90
37342;DHT22;58643;49.052;8.518;2023-04-12T11:32:05;16.80;99.90
37342;DHT22;58643;49.052;8.518;2023-04-12T11:34:35;14.90;99.90
37342;DHT22;58643;49.052;8.518;2023-04-12T11:37:01;16.10;99.90
37342;DHT22;58643;49.052;8.518;2023-04-12T11:39:30;15.40;99.90
37342;DHT22;58643;49.052;8.518;2023-04-12T11:41:57;16.80;99.90
37342;DHT22;58643;49.052;8.518;2023-04-12T11:44:23;17.20;99.90
37342;DHT22;58643;49.052;8.518;2023-04-12T11:46:49;15.40;99.90
37342;DHT22;58643;49.052;8.518;2023-04-12T11:49:15;15.70;99.90
37342;DHT22;58643;49.052;8.518;2023-04-12T11:51:42;15.50;99.90
37342;DHT22;58643;49.052;8.518;2023-04-12T11:54:08;16.00;99.90
37342;DHT22;58643;49.052;8.518;2023-04-12T11:56:35;17.60;99.90
37342;DHT22;58643;49.052;8.518;2023-04-12T11:59:01;15.80;99.90
37342;DHT22;58643;49.052;8.518;2023-04-12T12:01:27;16.50;99.90
37342;DHT22;58643;49.052;8.518;2023-04-12T12:03:54;16.30;99.90
37342;DHT22;58643;49.052;8.518;2023-04-12T12:06:21;17.70;99.90
37342;DHT22;58643;49.052;8.518;2023-04-12T12:08:50;16.00;99.90
37342;DHT22;58643;49.052;8.518;2023-04-12T12:11:18;17.10;99.90
37342;DHT22;58643;49.052;8.518;2023-04-12T12:13:48;16.80;99.90
37342;DHT22;58643;49.052;8.518;2023-04-12T12:16:15;16.20;99.90
37342;DHT22;58643;49.052;8.518;2023-04-12T12:18:42;17.40;99.90
37342;DHT22;58643;49.052;8.518;2023-04-12T12:21:09;17.30;99.90
37342;DHT22;58643;49.052;8.518;2023-04-12T12:23:35;17.20;99.90
37342;DHT22;58643;49.052;8.518;2023-04-12T12:26:02;18.40;99.90
37342;DHT22;58643;49.052;8.518;2023-04-12T12:28:28;16.10;99.90
37342;DHT22;58643;49.052;8.518;2023-04-12T12:30:57;16.60;99.90
37342;DHT22;58643;49.052;8.518;2023-04-12T12:33:23;16.40;99.90
37342;DHT22;58643;49.052;8.518;2023-04-12T12:35:56;17.30;99.90
37342;DHT22;58643;49.052;8.518;2023-04-12T12:38:22;16.00;99.90
37342;DHT22;58643;49.052;8.518;2023-04-12T12:40:48;16.00;99.90
37342;DHT22;58643;49.052;8.518;2023-04-12T12:43:18;17.20;99.90
37342;DHT22;58643;49.052;8.518;2023-04-12T12:45:45;16.30;99.90
37342;DHT22;58643;49.052;8.518;2023-04-12T12:48:11;16.90;99.90
37342;DHT22;58643;49.052;8.518;2023-04-12T12:50:37;18.20;99.90
37342;DHT22;58643;49.052;8.518;2023-04-12T12:53:03;18.10;99.90
37342;DHT22;58643;49.052;8.518;2023-04-12T12:55:33;17.70;99.90
37342;DHT22;58643;49.052;8.518;2023-04-12T12:57:59;17.50;99.90
37342;DHT22;58643;49.052;8.518;2023-04-12T13:00:26;16.50;99.90
37342;DHT22;58643;49.052;8.518;2023-04-12T13:02:52;16.20;99.90
37342;DHT22;58643;49.052;8.518;2023-04-12T13:05:19;16.30;99.90
37342;DHT22;58643;49.052;8.518;2023-04-12T13:07:45;17.70;99.90
37342;DHT22;58643;49.052;8.518;2023-04-12T13:10:11;15.70;99.90
37342;DHT22;58643;49.052;8.518;2023-04-12T13:12:37;16.30;99.90
37342;DHT22;58643;49.052;8.518;2023-04-12T13:15:03;15.60;99.90
37342;DHT22;58643;49.052;8.518;2023-04-12T13:17:29;15.50;99.90
37342;DHT22;58643;49.052;8.518;2023-04-12T13:19:55;16.10;99.90
37342;DHT22;58643;49.052;8.518;2023-04-12T13:22:21;15.60;99.90
37342;DHT22;58643;49.052;8.518;2023-04-12T13:24:47;16.10;99.90
37342;DHT22;58643;49.052;8.518;2023-04-12T13:27:12;16.00;99.90
37342;DHT22;58643;49.052;8.518;2023-04-12T13:29:39;16.20;99.90
37342;DHT22;58643;49.052;8.518;2023-04-12T13:32:05;16.90;99.90
37342;DHT22;58643;49.052;8.518;2023-04-12T13:34:31;17.10;99.90
37342;DHT22;58643;49.052;8.518;2023-04-12T13:36:57;17.90;99.90
37342;DHT22;58643;49.052;8.518;2023-04-12T13:39:23;17.60;99.90
37342;DHT22;58643;49.052;8.518;2023-04-12T13:41:49;17.70;99.90
37342;DHT22;58643;49.052;8.518;2023-04-12T13:44:15;18.40;99.90
37342;DHT22;58643;49.052;8.518;2023-04-12T13:46:41;18.40;99.90
37342;DHT22;58643;49.052;8.518;2023-04-12T13:49:06;17.20;99.90
37342;DHT22;58643;49.052;8.518;2023-04-12T13:51:32;17.20;99.90
37342;DHT22;58643;49.052;8.518;2023-04-12T13:53:58;17.10;99.90
37342;DHT22;58643;49.052;8.518;2023-04-12T13:56:23;17.00;99.90
37342;DHT22;58643;49.052;8.518;2023-04-12T13:58:50;16.50;99.90
37342;DHT22;58643;49.052;8.518;2023-04-12T14:01:16;16.70;99.90
37342;DHT22;58643;49.052;8.518;2023-04-12T14:03:42;17.70;99.90
37342;DHT22;58643;49.052;8.518;2023-04-12T14:06:07;16.00;99.90
37342;DHT22;58643;49.052;8.518;2023-04-12T14:08:33;15.80;99.90
37342;DHT22;58643;49.052;8.518;2023-04-12T14:11:01;15.80;99.90
37342;DHT22;58643;49.052;8.518;2023-04-12T14:13:26;15.40;99.90
37342;DHT22;58643;49.052;8.518;2023-04-12T14:15:53;15.10;99.90
37342;DHT22;58643;49.052;8.518;2023-04-12T14:18:20;14.30;99.90
37342;DHT22;58643;49.052;8.518;2023-04-12T14:20:50;14.20;99.90
37342;DHT22;58643;49.052;8.518;2023-04-12T14:23:17;14.70;99.90
37342;DHT22;58643;49.052;8.518;2023-04-12T14:25:43;14.60;99.90
37342;DHT22;58643;49.052;8.518;2023-04-12T14:28:09;13.20;99.90
37342;DHT22;58643;49.052;8.518;2023-04-12T14:30:34;13.20;99.90
37342;DHT22;58643;49.052;8.518;2023-04-12T14:33:00;12.80;99.90
37342;DHT22;58643;49.052;8.518;2023-04-12T14:35:26;11.80;99.90
37342;DHT22;58643;49.052;8.518;2023-04-12T14:37:51;11.70;99.90
37342;DHT22;58643;49.052;8.518;2023-04-12T14:40:17;10.60;99.90
37342;DHT22;58643;49.052;8.518;2023-04-12T14:42:43;10.50;99.90
37342;DHT22;58643;49.052;8.518;2023-04-12T14:45:09;11.90;99.90
37342;DHT22;58643;49.052;8.518;2023-04-12T14:47:35;10.40;99.90
37342;DHT22;58643;49.052;8.518;2023-04-12T14:50:02;11.80;99.90
37342;DHT22;58643;49.052;8.518;2023-04-12T14:52:28;10.40;99.90
37342;DHT22;58643;49.052;8.518;2023-04-12T14:54:53;10.30;99.90
37342;DHT22;58643;49.052;8.518;2023-04-12T14:57:19;11.30;99.90
37342;DHT22;58643;49.052;8.518;2023-04-12T14:59:44;12.20;99.90
37342;DHT22;58643;49.052;8.518;2023-04-12T15:02:10;10.40;99.90
37342;DHT22;58643;49.052;8.518;2023-04-12T15:04:36;10.50;99.90
37342;DHT22;58643;49.052;8.518;2023-04-12T15:07:01;13.00;99.90
37342;DHT22;58643;49.052;8.518;2023-04-12T15:09:27;10.30;99.90
37342;DHT22;58643;49.052;8.518;2023-04-12T15:11:53;10.80;99.90
37342;DHT22;58643;49.052;8.518;2023-04-12T15:14:25;11.00;99.90
37342;DHT22;58643;49.052;8.518;2023-04-12T15:16:51;11.30;99.90
37342;DHT22;58643;49.052;8.518;2023-04-12T15:19:17;13.50;99.90
37342;DHT22;58643;49.052;8.518;2023-04-12T15:21:46;12.60;99.90
37342;DHT22;58643;49.052;8.518;2023-04-12T15:24:15;11.40;99.90
37342;DHT22;58643;49.052;8.518;2023-04-12T15:26:42;12.30;99.90
37342;DHT22;58643;49.052;8.518;2023-04-12T15:29:07;11.50;99.90
37342;DHT22;58643;49.052;8.518;2023-04-12T15:31:33;11.70;99.90
37342;DHT22;58643;49.052;8.518;2023-04-12T15:33:59;12.80;99.90
37342;DHT22;58643;49.052;8.518;2023-04-12T15:36:25;12.80;99.90
37342;DHT22;58643;49.052;8.518;2023-04-12T15:38:58;11.80;99.90
37342;DHT22;58643;49.052;8.518;2023-04-12T15:41:23;13.00;99.90
37342;DHT22;58643;49.052;8.518;2023-04-12T15:43:49;11.50;99.90
37342;DHT22;58643;49.052;8.518;2023-04-12T15:46:15;11.70;99.90
37342;DHT22;58643;49.052;8.518;2023-04-12T15:48:40;11.90;99.90
37342;DHT22;58643;49.052;8.518;2023-04-12T15:51:06;11.90;99.90
37342;DHT22;58643;49.052;8.518;2023-04-12T15:53:32;11.60;99.90
37342;DHT22;58643;49.052;8.518;2023-04-12T15:55:57;12.60;99.90
37342;DHT22;58643;49.052;8.518;2023-04-12T15:58:24;13.40;99.90
37342;DHT22;58643;49.052;8.518;2023-04-12T16:00:51;12.80;99.90
37342;DHT22;58643;49.052;8.518;2023-04-12T16:03:20;12.30;99.90
37342;DHT22;58643;49.052;8.518;2023-04-12T16:05:50;11.60;99.90